Time;durP1;ratioP1;P1;durP2;ratioP2;P2;SDS_P1;SDS_P2;PMS_P1;PMS_P2;Temp;Humidity;BMP_temperature;BMP_pressure;BME280_temperature;BME280_humidity;BME280_pressure;Samples;Min_cycle;Max_cycle;Signal;HPM_P1;HPM_P2
2022/07/17 00:02:11;;;;;;;6.95;2.15;;;;;;;14.19;75.23;102701.16;5013802;28;20480;-35
2022/07/17 00:04:36;;;;;;;5.95;2.00;;;;;;;14.18;75.43;102708.16;5013444;28;20030;-33
2022/07/17 00:07:01;;;;;;;4.15;1.95;;;;;;;14.18;75.36;102707.31;5028607;28;20065;-33
2022/07/17 00:09:27;;;;;;;6.15;2.20;;;;;;;14.21;74.83;102694.00;5013913;28;20058;-35
2022/07/17 00:11:52;;;;;;;6.60;2.30;;;;;;;14.25;74.86;102692.69;5014140;28;20037;-34
2022/07/17 00:14:17;;;;;;;7.00;2.47;;;;;;;14.24;74.73;102696.25;5013448;28;20052;-33
2022/07/17 00:16:42;;;;;;;5.63;2.67;;;;;;;14.25;74.53;102692.69;5013878;28;20034;-34
2022/07/17 00:19:08;;;;;;;6.32;2.67;;;;;;;14.14;74.95;102690.44;5013521;28;20136;-36
2022/07/17 00:21:33;;;;;;;8.57;2.80;;;;;;;14.14;75.04;102693.84;5013729;28;20030;-35
2022/07/17 00:23:58;;;;;;;7.90;2.72;;;;;;;14.14;75.25;102700.84;5013455;28;20381;-34
2022/07/17 00:26:24;;;;;;;5.18;2.70;;;;;;;14.01;75.73;102693.50;5013696;28;20037;-36
2022/07/17 00:28:49;;;;;;;6.03;2.60;;;;;;;14.08;75.51;102699.69;5013628;28;20022;-37
2022/07/17 00:31:14;;;;;;;5.43;2.50;;;;;;;14.04;75.32;102694.97;5013729;28;20029;-34
2022/07/17 00:33:40;;;;;;;5.57;2.40;;;;;;;14.07;75.36;102690.28;5013154;28;20022;-37
2022/07/17 00:36:05;;;;;;;5.43;2.17;;;;;;;14.13;75.35;102684.44;5013827;28;20037;-36
2022/07/17 00:38:30;;;;;;;7.00;2.47;;;;;;;14.15;75.34;102689.44;5013256;28;20093;-34
2022/07/17 00:40:57;;;;;;;5.95;2.25;;;;;;;14.09;75.63;102685.72;5013632;28;20109;-34
2022/07/17 00:43:23;;;;;;;9.23;2.78;;;;;;;14.18;75.57;102689.13;5029448;28;20040;-34
2022/07/17 00:45:59;;;;;;;13.32;3.78;;;;;;;14.15;75.21;102689.44;5017109;28;20022;-36
2022/07/17 00:48:25;;;;;;;8.80;3.70;;;;;;;14.23;75.31;102692.84;5017857;28;20056;-35
2022/07/17 00:50:51;;;;;;;9.23;2.88;;;;;;;14.20;75.05;102692.38;5017152;28;20033;-36
2022/07/17 00:53:17;;;;;;;9.85;3.05;;;;;;;14.23;75.34;102697.25;5017445;28;20033;-36
2022/07/17 00:55:46;;;;;;;6.00;2.90;;;;;;;14.15;75.67;102702.44;5017185;28;20022;-35
2022/07/17 00:58:17;;;;;;;9.65;2.88;;;;;;;14.05;75.49;102688.81;5017550;28;20382;-36
2022/07/17 01:00:43;;;;;;;7.03;3.08;;;;;;;14.08;76.04;102698.91;5017467;28;20021;-34
2022/07/17 01:03:09;;;;;;;7.18;2.70;;;;;;;13.98;76.56;102701.63;5017272;28;20030;-35
2022/07/17 01:05:34;;;;;;;7.25;2.53;;;;;;;13.94;76.69;102695.97;5017632;28;20424;-34
2022/07/17 01:08:00;;;;;;;7.30;2.40;;;;;;;13.95;75.96;102691.56;5016879;28;20054;-33
2022/07/17 01:10:25;;;;;;;6.00;2.30;;;;;;;13.96;75.73;102694.03;5016712;28;20033;-35
2022/07/17 01:12:50;;;;;;;6.35;2.38;;;;;;;13.94;75.65;102698.56;5016639;28;20090;-36
2022/07/17 01:15:16;;;;;;;5.82;2.17;;;;;;;13.79;75.95;102700.19;5016851;28;20112;-34
2022/07/17 01:17:42;;;;;;;6.20;2.08;;;;;;;13.80;75.73;102690.59;5016958;28;20381;-34
2022/07/17 01:20:09;;;;;;;5.18;2.15;;;;;;;13.66;76.14;102689.44;5016821;28;20028;-33
2022/07/17 01:22:46;;;;;;;5.97;2.00;;;;;;;13.75;75.94;102686.72;5017078;28;20392;-34
2022/07/17 01:25:12;;;;;;;4.35;2.00;;;;;;;13.73;76.04;102688.66;5016579;28;20112;-35
2022/07/17 01:27:38;;;;;;;7.22;2.08;;;;;;;13.73;76.15;102687.84;5016409;28;20081;-33
2022/07/17 01:30:05;;;;;;;8.27;2.20;;;;;;;13.64;76.29;102679.22;5016456;28;20038;-32
2022/07/17 01:32:34;;;;;;;4.90;2.20;;;;;;;13.65;76.47;102682.63;5016423;28;20053;-34
2022/07/17 01:35:01;;;;;;;5.22;2.30;;;;;;;13.65;76.13;102683.44;5016492;28;20488;-35
2022/07/17 01:37:26;;;;;;;9.13;2.00;;;;;;;13.54;76.18;102670.75;5016280;28;20036;-33
2022/07/17 01:39:54;;;;;;;3.78;1.80;;;;;;;13.46;76.46;102673.34;5016465;28;20105;-34
2022/07/17 01:42:23;;;;;;;4.75;2.17;;;;;;;13.62;75.54;102680.34;5016515;28;20045;-34
2022/07/17 01:44:49;;;;;;;7.63;2.40;;;;;;;13.47;75.55;102665.41;5016436;28;20106;-35
2022/07/17 01:47:15;;;;;;;11.00;2.40;;;;;;;13.57;75.74;102677.41;5016070;28;20473;-34
2022/07/17 01:49:49;;;;;;;7.10;2.00;;;;;;;13.60;75.88;102675.31;5016059;28;20053;-36
2022/07/17 01:52:14;;;;;;;8.95;2.10;;;;;;;13.58;75.65;102679.03;5016549;28;20034;-35
2022/07/17 01:54:41;;;;;;;7.03;2.40;;;;;;;13.29;76.30;102672.47;5015165;28;20026;-36
2022/07/17 01:57:06;;;;;;;5.63;1.98;;;;;;;13.27;76.06;102667.47;5016038;28;20038;-35
2022/07/17 01:59:31;;;;;;;3.83;2.10;;;;;;;13.30;75.75;102668.94;5015977;28;20596;-36
2022/07/17 02:01:57;;;;;;;5.82;2.42;;;;;;;13.22;76.05;102677.47;5015750;28;20155;-36
2022/07/17 02:04:22;;;;;;;3.53;1.77;;;;;;;13.18;76.20;102668.38;5016352;28;20030;-36
2022/07/17 02:06:47;;;;;;;5.80;2.10;;;;;;;13.17;76.41;102671.94;5015638;28;20101;-35
2022/07/17 02:09:13;;;;;;;5.93;1.80;;;;;;;13.19;76.66;102675.19;5016217;28;20030;-35
2022/07/17 02:11:38;;;;;;;6.05;1.90;;;;;;;13.17;76.77;102679.72;5015953;28;20100;-35
2022/07/17 02:14:03;;;;;;;5.30;2.13;;;;;;;13.05;76.82;102679.19;5015612;28;20111;-34
2022/07/17 02:16:29;;;;;;;5.70;2.17;;;;;;;13.09;76.72;102677.94;5015587;28;20429;-35
2022/07/17 02:18:54;;;;;;;4.05;1.95;;;;;;;13.05;76.78;102686.19;5016230;28;20057;-35
2022/07/17 02:21:19;;;;;;;3.55;1.77;;;;;;;13.00;76.98;102678.03;5015862;28;20113;-34
2022/07/17 02:23:45;;;;;;;4.45;1.90;;;;;;;12.91;77.12;102676.38;5015514;28;20061;-34
2022/07/17 02:26:10;;;;;;;7.38;1.85;;;;;;;12.73;77.69;102660.91;5015360;28;20014;-34
2022/07/17 02:28:35;;;;;;;8.38;2.00;;;;;;;12.95;77.44;102677.72;5015608;28;20068;-35
2022/07/17 02:31:01;;;;;;;7.70;2.55;;;;;;;12.74;77.27;102689.28;5015275;28;20553;-34
2022/07/17 02:33:26;;;;;;;6.78;1.95;;;;;;;12.72;78.29;102693.84;5015260;28;20022;-33
2022/07/17 02:35:52;;;;;;;6.97;1.98;;;;;;;12.75;78.49;102695.31;5015414;28;20084;-34
2022/07/17 02:38:17;;;;;;;6.95;2.10;;;;;;;12.61;78.97;102694.09;5015213;28;20076;-36
2022/07/17 02:40:42;;;;;;;4.63;1.77;;;;;;;12.65;79.80;102691.00;5015141;28;20022;-36
2022/07/17 02:43:08;;;;;;;7.07;1.90;;;;;;;12.72;79.22;102690.44;5015614;28;20026;-34
2022/07/17 02:45:33;;;;;;;4.13;1.73;;;;;;;12.76;78.86;102687.34;5015080;28;20496;-35
2022/07/17 02:47:58;;;;;;;5.82;1.98;;;;;;;12.78;79.07;102685.44;5015322;28;20053;-34
2022/07/17 02:50:24;;;;;;;6.90;2.00;;;;;;;12.76;79.02;102681.34;5015237;28;20053;-34
2022/07/17 02:52:49;;;;;;;3.85;1.80;;;;;;;12.77;78.61;102675.19;5014932;28;20025;-34
2022/07/17 02:55:16;;;;;;;5.95;1.80;;;;;;;12.87;79.26;102683.69;5014690;28;20521;-35
2022/07/17 02:57:42;;;;;;;7.57;1.88;;;;;;;12.85;79.11;102677.81;5014933;28;20117;-34
2022/07/17 03:00:10;;;;;;;12.88;1.90;;;;;;;12.99;79.27;102681.63;5015172;28;20061;-34
2022/07/17 03:02:36;;;;;;;8.18;2.40;;;;;;;13.00;78.58;102680.63;5014659;28;20389;-34
2022/07/17 03:05:02;;;;;;;5.55;2.40;;;;;;;13.05;78.72;102688.78;5014650;28;20025;-34
2022/07/17 03:07:27;;;;;;;8.02;1.90;;;;;;;12.68;79.93;102694.28;5014483;28;20060;-34
2022/07/17 03:09:52;;;;;;;5.03;1.85;;;;;;;12.73;80.16;102686.84;5014843;28;20385;-34
2022/07/17 03:12:18;;;;;;;5.38;1.85;;;;;;;12.79;80.08;102688.81;5014564;28;20018;-35
2022/07/17 03:14:43;;;;;;;6.22;1.92;;;;;;;12.73;79.68;102700.63;5014441;28;20033;-35
2022/07/17 03:17:08;;;;;;;4.95;1.85;;;;;;;12.62;80.05;102693.91;5014479;28;20136;-34
2022/07/17 03:19:34;;;;;;;6.68;2.25;;;;;;;12.63;80.06;102695.56;5014828;28;20025;-35
2022/07/17 03:21:59;;;;;;;6.45;2.13;;;;;;;12.72;79.43;102688.63;5014381;28;20152;-35
2022/07/17 03:24:25;;;;;;;6.90;1.83;;;;;;;12.78;79.08;102695.00;5014591;28;20105;-36
2022/07/17 03:26:51;;;;;;;3.70;1.90;;;;;;;12.87;78.91;102696.66;5014576;28;20021;-34
2022/07/17 03:29:17;;;;;;;8.77;2.00;;;;;;;12.75;79.31;102697.91;5015122;28;20121;-35
2022/07/17 03:31:43;;;;;;;5.90;1.80;;;;;;;12.76;79.68;102692.53;5015322;28;20030;-34
2022/07/17 03:34:08;;;;;;;8.15;2.10;;;;;;;12.89;79.12;102697.31;5014260;28;20536;-34
2022/07/17 03:36:33;;;;;;;8.05;2.15;;;;;;;12.92;79.05;102689.22;5014092;28;20065;-34
2022/07/17 03:38:59;;;;;;;6.22;2.17;;;;;;;13.02;79.28;102699.47;5014105;28;20445;-36
2022/07/17 03:41:24;;;;;;;5.50;2.10;;;;;;;13.03;79.21;102690.72;5014362;28;20034;-34
2022/07/17 03:43:49;;;;;;;4.82;2.33;;;;;;;13.12;78.81;102694.97;5014352;28;20472;-34
2022/07/17 03:46:15;;;;;;;5.90;2.35;;;;;;;13.13;78.91;102701.78;5013936;28;20101;-34
2022/07/17 03:48:40;;;;;;;8.05;2.35;;;;;;;13.03;79.24;102699.31;5014188;28;20021;-34
2022/07/17 03:51:05;;;;;;;9.85;2.20;;;;;;;12.99;79.46;102681.63;5014261;28;20183;-36
2022/07/17 03:53:31;;;;;;;5.43;2.22;;;;;;;13.17;79.00;102704.88;5013799;28;20037;-33
2022/07/17 03:55:56;;;;;;;4.63;2.15;;;;;;;13.20;78.94;102712.34;5014062;28;20483;-34
2022/07/17 03:58:21;;;;;;;6.65;2.08;;;;;;;13.26;78.76;102711.75;5013802;28;20018;-34
2022/07/17 04:00:46;;;;;;;10.30;2.13;;;;;;;13.24;78.94;102713.69;5014299;28;20034;-35
2022/07/17 04:03:12;;;;;;;6.07;2.10;;;;;;;13.08;79.04;102717.81;5014021;28;20381;-34
2022/07/17 04:05:37;;;;;;;5.07;2.00;;;;;;;13.03;79.20;102725.28;5013970;28;20017;-34
2022/07/17 04:08:02;;;;;;;6.68;2.45;;;;;;;13.09;79.15;102719.47;5013631;28;20046;-34
2022/07/17 04:10:28;;;;;;;5.95;2.10;;;;;;;13.17;78.65;102723.84;5013966;28;20022;-34
2022/07/17 04:12:53;;;;;;;5.70;2.20;;;;;;;13.16;78.65;102722.25;5013894;28;20026;-34
2022/07/17 04:15:48;;;;;;;7.88;2.03;;;;;;;13.13;78.57;102719.97;5013590;28;20029;-33
2022/07/17 04:18:04;;;;;;;6.10;2.17;;;;;;;13.19;78.02;102719.31;5013040;28;20049;-34
2022/07/17 04:20:29;;;;;;;8.35;2.00;;;;;;;13.16;78.00;102716.25;5013744;28;20370;-34
2022/07/17 04:22:54;;;;;;;8.07;2.03;;;;;;;13.19;77.30;102721.94;5013798;28;20121;-34
2022/07/17 04:25:20;;;;;;;5.55;2.20;;;;;;;13.19;77.46;102713.34;5013528;28;20358;-35
2022/07/17 04:27:45;;;;;;;6.72;2.10;;;;;;;13.19;77.35;102726.31;5013802;28;20033;-34
2022/07/17 04:30:10;;;;;;;4.30;2.05;;;;;;;13.26;77.33;102722.97;5013786;28;20101;-34
2022/07/17 04:32:36;;;;;;;8.13;2.13;;;;;;;13.33;77.23;102730.94;5012184;28;20026;-35
2022/07/17 04:35:01;;;;;;;4.90;2.08;;;;;;;13.19;77.09;102714.13;5013613;28;20105;-34
2022/07/17 04:37:26;;;;;;;8.93;1.92;;;;;;;13.34;77.03;102731.75;5013708;28;20029;-35
2022/07/17 04:39:52;;;;;;;5.72;2.13;;;;;;;13.37;76.79;102732.22;5013438;28;20033;-36
2022/07/17 04:42:17;;;;;;;4.97;2.03;;;;;;;13.35;76.68;102712.59;5013545;28;20018;-35
2022/07/17 04:44:42;;;;;;;2.80;1.90;;;;;;;13.42;76.31;102709.22;5013551;28;20029;-34
2022/07/17 04:47:07;;;;;;;9.25;2.10;;;;;;;13.53;75.66;102711.50;5013627;28;20061;-35
2022/07/17 04:49:33;;;;;;;6.32;2.28;;;;;;;13.64;74.58;102701.81;5013353;28;20044;-34
2022/07/17 04:51:59;;;;;;;10.93;2.30;;;;;;;13.82;73.72;102699.06;5013839;28;20025;-33
2022/07/17 04:54:24;;;;;;;7.80;2.10;;;;;;;13.77;73.83;102697.72;5013415;28;20080;-33
2022/07/17 04:56:49;;;;;;;5.40;2.08;;;;;;;13.47;75.09;102704.34;5013110;28;20032;-33
2022/07/17 04:59:15;;;;;;;8.15;2.25;;;;;;;13.54;74.81;102694.13;5013784;28;20034;-34
2022/07/17 05:01:40;;;;;;;10.30;2.30;;;;;;;13.47;75.43;102704.34;5013555;28;20017;-34
2022/07/17 05:04:05;;;;;;;5.30;2.38;;;;;;;13.53;75.32;102698.53;5013385;28;20022;-34
2022/07/17 05:06:31;;;;;;;7.35;2.20;;;;;;;13.72;74.43;102700.03;5013713;28;20038;-34
2022/07/17 05:08:56;;;;;;;5.03;1.75;;;;;;;13.76;73.95;102697.91;5013141;28;20022;-35
2022/07/17 05:11:21;;;;;;;5.28;1.90;;;;;;;13.92;73.26;102697.91;5013415;28;20457;-33
2022/07/17 05:13:47;;;;;;;9.60;2.10;;;;;;;13.92;73.29;102695.28;5013188;28;20171;-34
2022/07/17 05:16:12;;;;;;;7.20;1.95;;;;;;;13.78;73.45;102698.53;5013273;28;20022;-32
2022/07/17 05:18:37;;;;;;;3.63;1.67;;;;;;;14.22;72.46;102693.03;5013115;28;20030;-34
2022/07/17 05:21:03;;;;;;;6.50;1.90;;;;;;;14.20;72.17;102689.78;5013359;28;20026;-33
2022/07/17 05:23:28;;;;;;;5.72;2.10;;;;;;;14.63;71.14;102692.97;5012986;28;20484;-33
2022/07/17 05:25:53;;;;;;;8.15;1.92;;;;;;;15.07;69.64;102695.88;5014038;28;20034;-35
2022/07/17 05:28:18;;;;;;;8.52;2.08;;;;;;;15.42;67.35;102703.34;5013303;28;20014;-34
2022/07/17 05:30:44;;;;;;;9.88;2.03;;;;;;;15.35;67.23;102693.63;5014224;28;20045;-33
2022/07/17 05:33:09;;;;;;;5.75;2.00;;;;;;;15.09;69.23;102693.13;5016439;28;20481;-35
2022/07/17 05:35:34;;;;;;;4.50;1.85;;;;;;;15.30;68.12;102706.34;5016333;28;20022;-34
2022/07/17 05:38:00;;;;;;;8.48;1.90;;;;;;;15.19;68.61;102711.97;5016617;28;20080;-33
2022/07/17 05:40:25;;;;;;;8.13;2.10;;;;;;;15.22;68.76;102706.44;5016348;28;20026;-34
2022/07/17 05:42:51;;;;;;;6.00;1.60;;;;;;;15.37;68.17;102708.31;5016083;28;20109;-35
2022/07/17 05:45:16;;;;;;;5.47;1.83;;;;;;;15.55;67.44;102708.81;5015254;28;20022;-35
2022/07/17 05:47:41;;;;;;;4.82;1.67;;;;;;;15.43;68.32;102708.41;5016453;28;20413;-35
2022/07/17 05:50:07;;;;;;;6.28;1.80;;;;;;;15.69;67.38;102725.56;5016097;28;20030;-34
2022/07/17 05:52:32;;;;;;;4.90;1.80;;;;;;;15.68;67.13;102735.16;5016378;28;20040;-34
2022/07/17 05:54:57;;;;;;;6.03;1.88;;;;;;;18.54;58.72;102727.38;5015915;28;20417;-35
2022/07/17 05:57:23;;;;;;;5.18;1.70;;;;;;;25.11;41.71;102716.16;5016328;28;20022;-34
2022/07/17 05:59:48;;;;;;;5.68;1.55;;;;;;;27.12;35.96;102712.53;5016544;28;20029;-34
2022/07/17 06:02:14;;;;;;;5.07;1.63;;;;;;;27.53;34.30;102715.53;5014777;28;20048;-34
2022/07/17 06:04:39;;;;;;;7.70;2.03;;;;;;;28.22;34.00;102733.22;5014766;28;20076;-35
2022/07/17 06:07:05;;;;;;;6.35;1.80;;;;;;;28.34;33.35;102733.84;5015764;28;20497;-34
2022/07/17 06:09:30;;;;;;;5.95;1.70;;;;;;;28.88;32.72;102738.78;5015905;28;20030;-34
2022/07/17 06:11:56;;;;;;;5.82;1.70;;;;;;;29.29;31.84;102741.53;5015730;28;20052;-35
2022/07/17 06:14:21;;;;;;;5.15;1.40;;;;;;;30.02;30.02;102748.38;5030908;28;20036;-34
2022/07/17 06:16:46;;;;;;;7.25;1.88;;;;;;;30.06;29.14;102752.09;5015851;28;20481;-35
2022/07/17 06:19:12;;;;;;;4.60;1.50;;;;;;;29.32;30.12;102748.16;5015738;28;20040;-36
2022/07/17 06:21:37;;;;;;;7.30;1.70;;;;;;;29.03;30.11;102751.34;5015744;28;20026;-34
2022/07/17 06:24:02;;;;;;;7.18;1.70;;;;;;;29.32;29.53;102753.50;5015401;28;20287;-35
2022/07/17 06:26:27;;;;;;;9.70;1.70;;;;;;;30.26;28.72;102753.91;5015731;28;20010;-34
2022/07/17 06:28:53;;;;;;;8.88;1.98;;;;;;;30.08;29.76;102750.75;5015317;28;20037;-34
2022/07/17 06:31:18;;;;;;;4.03;1.30;;;;;;;30.70;27.77;102755.81;5015627;28;20113;-34
2022/07/17 06:33:43;;;;;;;6.57;1.60;;;;;;;30.62;28.56;102756.44;5015843;28;20022;-34
2022/07/17 06:36:09;;;;;;;6.22;1.90;;;;;;;31.05;27.41;102746.84;5015169;28;20022;-35
2022/07/17 06:38:34;;;;;;;5.27;1.40;;;;;;;31.40;26.63;102767.13;5015631;28;20033;-34
2022/07/17 06:41:01;;;;;;;6.97;1.55;;;;;;;30.92;26.84;102768.81;5014578;28;20578;-34
2022/07/17 06:43:26;;;;;;;5.20;1.75;;;;;;;30.47;27.46;102768.78;5015109;28;20457;-34
2022/07/17 06:45:53;;;;;;;6.65;1.45;;;;;;;30.70;27.04;102771.84;5014904;28;20033;-34
2022/07/17 06:48:20;;;;;;;4.82;1.40;;;;;;;30.74;27.25;102770.22;5013569;28;20030;-36
2022/07/17 06:50:45;;;;;;;6.93;1.75;;;;;;;30.49;27.56;102765.81;5015360;28;20030;-34
2022/07/17 06:53:10;;;;;;;5.20;1.40;;;;;;;30.89;27.05;102766.69;5014764;28;20029;-35
2022/07/17 06:55:36;;;;;;;7.80;1.48;;;;;;;30.06;27.95;102760.88;5014999;28;20117;-33
2022/07/17 06:58:01;;;;;;;11.23;1.50;;;;;;;30.44;27.57;102755.97;5015275;28;20113;-34
2022/07/17 07:00:26;;;;;;;4.00;1.48;;;;;;;29.82;28.39;102757.22;5029884;28;20022;-34
2022/07/17 07:02:52;;;;;;;5.85;1.50;;;;;;;29.35;29.06;102755.66;5015134;28;20346;-35
2022/07/17 07:05:17;;;;;;;6.25;1.50;;;;;;;27.79;31.56;102759.81;5014744;28;20014;-34
2022/07/17 07:07:42;;;;;;;5.10;1.30;;;;;;;24.71;37.03;102758.50;5014291;28;20056;-33
2022/07/17 07:10:08;;;;;;;5.28;1.42;;;;;;;23.79;39.02;102767.81;5014451;28;20026;-34
2022/07/17 07:12:33;;;;;;;4.72;1.25;;;;;;;22.88;41.09;102747.78;5014932;28;20061;-33
2022/07/17 07:14:59;;;;;;;7.10;1.20;;;;;;;22.80;41.05;102756.78;5014553;28;20029;-34
2022/07/17 07:17:24;;;;;;;6.00;1.55;;;;;;;22.93;41.14;102756.63;5014265;28;20053;-33
2022/07/17 07:19:50;;;;;;;4.80;1.40;;;;;;;22.71;42.10;102750.19;5014605;28;20033;-35
2022/07/17 07:22:15;;;;;;;6.20;1.50;;;;;;;22.60;42.68;102751.72;5014510;28;20460;-34
2022/07/17 07:24:40;;;;;;;3.28;1.33;;;;;;;23.18;42.02;102759.16;5014239;28;20061;-34
2022/07/17 07:27:06;;;;;;;5.35;1.40;;;;;;;23.16;41.19;102763.88;5014283;28;20385;-35
2022/07/17 07:29:31;;;;;;;5.50;1.40;;;;;;;23.20;42.66;102753.66;5014203;28;20018;-34
2022/07/17 07:31:57;;;;;;;5.53;1.23;;;;;;;22.71;42.42;102752.84;5014269;28;20033;-34
2022/07/17 07:34:23;;;;;;;6.20;1.30;;;;;;;22.65;42.86;102764.25;5014488;28;20033;-34
2022/07/17 07:36:48;;;;;;;5.40;1.30;;;;;;;23.21;41.56;102765.81;5014199;28;20026;-35
2022/07/17 07:39:14;;;;;;;6.15;1.30;;;;;;;23.17;41.62;102768.09;5014041;28;20124;-33
2022/07/17 07:41:40;;;;;;;4.28;1.35;;;;;;;23.29;42.04;102764.69;5014155;28;20022;-36
2022/07/17 07:44:05;;;;;;;4.53;1.40;;;;;;;23.47;41.55;102767.28;5014301;28;20453;-33
2022/07/17 07:46:31;;;;;;;6.38;1.30;;;;;;;23.13;41.71;102751.13;5014302;28;20018;-35
2022/07/17 07:48:56;;;;;;;9.77;1.40;;;;;;;23.20;41.20;102764.22;5014182;28;20028;-34
2022/07/17 07:51:21;;;;;;;6.28;1.55;;;;;;;23.82;40.85;102766.56;5013875;28;20061;-35
2022/07/17 07:53:47;;;;;;;6.13;1.33;;;;;;;23.68;40.93;102760.69;5013910;28;20104;-34
2022/07/17 07:56:12;;;;;;;6.15;1.70;;;;;;;23.60;40.98;102761.00;5014087;28;20288;-34
2022/07/17 07:58:37;;;;;;;5.28;1.02;;;;;;;23.93;41.02;102749.13;5014099;28;20355;-35
2022/07/17 08:01:03;;;;;;;4.35;1.40;;;;;;;24.23;40.26;102760.41;5013898;28;20030;-35
2022/07/17 08:03:29;;;;;;;2.33;0.90;;;;;;;24.06;40.00;102756.84;5013861;28;20021;-35
2022/07/17 08:05:54;;;;;;;5.15;1.30;;;;;;;24.14;39.50;102750.41;5013935;28;20167;-35
2022/07/17 08:08:19;;;;;;;3.80;1.30;;;;;;;23.91;40.88;102751.19;5013466;28;20049;-35
2022/07/17 08:10:45;;;;;;;10.20;1.40;;;;;;;24.22;39.67;102744.78;5013978;28;20042;-35
2022/07/17 08:13:10;;;;;;;6.15;1.40;;;;;;;24.00;40.15;102750.66;5013554;28;20022;-35
2022/07/17 08:15:36;;;;;;;4.85;1.40;;;;;;;23.96;40.82;102740.75;5013386;28;20022;-36
2022/07/17 08:18:01;;;;;;;6.35;1.50;;;;;;;24.81;39.32;102744.69;5013863;28;20045;-37
2022/07/17 08:20:27;;;;;;;3.97;1.40;;;;;;;24.55;39.14;102736.25;5013793;28;20143;-34
2022/07/17 08:22:52;;;;;;;7.22;1.45;;;;;;;24.22;39.29;102748.22;5013530;28;20022;-34
2022/07/17 08:25:18;;;;;;;9.65;1.42;;;;;;;23.69;40.12;102749.09;5013022;28;20021;-35
2022/07/17 08:27:44;;;;;;;4.18;1.25;;;;;;;23.68;40.17;102744.84;5012706;28;20065;-35
2022/07/17 08:30:12;;;;;;;5.18;1.23;;;;;;;23.98;41.00;102741.34;5012656;28;20032;-36
2022/07/17 08:32:39;;;;;;;5.78;1.23;;;;;;;24.09;40.33;102736.06;5012680;28;20466;-34
2022/07/17 08:35:05;;;;;;;2.95;1.10;;;;;;;24.96;37.97;102748.41;5012458;28;20026;-35
2022/07/17 08:37:44;;;;;;;6.10;1.50;;;;;;;23.50;40.47;102751.00;5012665;28;20589;-34
2022/07/17 08:40:20;;;;;;;3.67;1.33;;;;;;;25.16;38.52;102750.66;5013693;28;20129;-34
2022/07/17 08:42:45;;;;;;;4.72;1.50;;;;;;;25.20;37.81;102743.88;5014365;28;20457;-34
2022/07/17 08:45:12;;;;;;;5.18;1.40;;;;;;;25.67;37.01;102743.59;5013268;28;20097;-35
2022/07/17 08:47:38;;;;;;;5.18;1.10;;;;;;;25.40;36.93;102740.75;5013507;28;20026;-34
2022/07/17 08:50:04;;;;;;;3.80;1.40;;;;;;;25.08;38.02;102744.91;5013236;28;20536;-35
2022/07/17 08:52:29;;;;;;;3.78;1.20;;;;;;;24.79;37.67;102747.56;5013430;28;20428;-34
2022/07/17 08:54:55;;;;;;;4.68;1.73;;;;;;;24.30;38.86;102742.56;5013362;28;20022;-34
2022/07/17 08:57:20;;;;;;;5.38;1.40;;;;;;;24.73;38.02;102740.56;5013456;28;20033;-34
2022/07/17 08:59:48;;;;;;;4.18;1.40;;;;;;;25.42;37.85;102732.59;5013391;28;20076;-34
2022/07/17 09:02:13;;;;;;;3.70;1.38;;;;;;;25.18;37.77;102740.66;5013721;28;20040;-34
2022/07/17 09:04:40;;;;;;;5.68;1.45;;;;;;;25.25;38.24;102739.69;5014432;28;20030;-34
2022/07/17 09:07:06;;;;;;;8.15;1.35;;;;;;;25.47;37.78;102737.16;5016838;28;20057;-40
2022/07/17 09:09:33;;;;;;;6.32;1.40;;;;;;;25.98;36.71;102736.13;5017314;28;20355;-34
2022/07/17 09:12:00;;;;;;;3.95;1.27;;;;;;;26.02;37.12;102737.22;5016822;28;20491;-35
2022/07/17 09:14:37;;;;;;;5.28;1.58;;;;;;;25.85;37.57;102724.00;5016810;28;20030;-34
2022/07/17 09:17:04;;;;;;;3.75;1.20;;;;;;;26.41;37.00;102734.53;5017406;28;20025;-33
2022/07/17 09:19:32;;;;;;;7.13;1.50;;;;;;;25.94;36.92;102732.34;5016581;28;20026;-34
2022/07/17 09:22:21;;;;;;;6.68;1.45;;;;;;;25.35;38.59;102730.09;5016964;28;20022;-34
2022/07/17 09:24:58;;;;;;;4.80;1.58;;;;;;;25.50;38.49;102726.91;5016562;28;20105;-34
2022/07/17 09:27:23;;;;;;;8.07;2.00;;;;;;;25.79;37.67;102732.09;5016777;28;20534;-35
2022/07/17 09:29:52;;;;;;;8.47;1.80;;;;;;;25.25;37.74;102731.75;5016730;28;20066;-34
2022/07/17 09:32:23;;;;;;;4.45;1.65;;;;;;;25.85;37.75;102733.81;5016732;28;20022;-33
2022/07/17 09:34:49;;;;;;;7.07;1.60;;;;;;;26.31;36.75;102737.09;5016634;28;20351;-34
2022/07/17 09:37:15;;;;;;;3.15;1.35;;;;;;;25.93;37.08;102733.41;5016722;28;20026;-36
2022/07/17 09:39:41;;;;;;;5.32;1.60;;;;;;;24.91;39.08;102739.59;5016514;28;20037;-35
2022/07/17 09:42:07;;;;;;;4.80;1.45;;;;;;;24.53;39.81;102739.13;5015328;28;20105;-35
2022/07/17 09:44:32;;;;;;;4.88;1.60;;;;;;;24.93;38.63;102738.31;5016234;28;20105;-34
2022/07/17 09:46:59;;;;;;;7.53;1.53;;;;;;;25.79;38.88;102737.41;5016347;28;20025;-34
2022/07/17 09:49:27;;;;;;;7.28;1.40;;;;;;;26.04;38.04;102727.22;5016179;28;20276;-34
2022/07/17 09:51:53;;;;;;;5.18;1.75;;;;;;;26.15;37.14;102729.97;5016136;28;20416;-40
2022/07/17 09:54:22;;;;;;;5.00;1.98;;;;;;;26.45;35.59;102732.22;5016220;28;20017;-41
2022/07/17 09:56:50;;;;;;;4.22;1.58;;;;;;;24.95;38.17;102720.38;5016153;28;20060;-40
2022/07/17 09:59:17;;;;;;;6.07;1.30;;;;;;;26.32;37.02;102726.22;5031158;28;20026;-42
2022/07/17 10:01:44;;;;;;;6.32;1.70;;;;;;;26.39;36.52;102730.56;5016024;28;20156;-41
2022/07/17 10:04:10;;;;;;;8.82;1.70;;;;;;;27.31;35.06;102735.03;5016030;28;20028;-42
2022/07/17 10:06:36;;;;;;;6.93;1.50;;;;;;;26.07;36.14;102732.00;5015932;28;20150;-43
2022/07/17 10:09:02;;;;;;;5.03;1.50;;;;;;;26.02;36.85;102728.50;5015999;28;20373;-40
2022/07/17 10:11:31;;;;;;;7.25;1.77;;;;;;;27.19;35.41;102723.78;5030968;28;20381;-40
2022/07/17 10:14:05;;;;;;;2.97;1.33;;;;;;;26.72;34.39;102713.72;5015853;28;20425;-42
2022/07/17 10:16:31;;;;;;;6.22;1.50;;;;;;;26.10;35.62;102725.44;5015101;28;20041;-42
2022/07/17 10:18:58;;;;;;;3.92;1.50;;;;;;;25.72;36.97;102720.84;5015501;28;20148;-40
2022/07/17 10:21:25;;;;;;;3.72;1.48;;;;;;;26.97;35.33;102729.91;5016023;28;20030;-39
2022/07/17 10:23:53;;;;;;;3.67;1.60;;;;;;;26.84;34.77;102722.34;5015694;28;20118;-42
2022/07/17 10:26:32;;;;;;;4.80;1.60;;;;;;;26.74;35.75;102724.91;5015661;28;20030;-42
2022/07/17 10:28:57;;;;;;;6.40;1.50;;;;;;;26.87;35.20;102734.28;5015844;28;20083;-42
2022/07/17 10:31:25;;;;;;;7.47;1.50;;;;;;;26.36;36.09;102725.75;5015653;28;20424;-41
2022/07/17 10:34:01;;;;;;;5.30;1.77;;;;;;;26.32;35.77;102731.53;5015383;28;20104;-41
2022/07/17 10:36:41;;;;;;;9.23;1.70;;;;;;;26.10;36.63;102723.56;5015188;28;20032;-39
2022/07/17 10:39:14;;;;;;;5.38;1.80;;;;;;;27.03;35.27;102735.25;5030455;28;20040;-39
2022/07/17 10:41:40;;;;;;;5.47;1.55;;;;;;;26.37;36.04;102732.66;5015265;28;20061;-39
2022/07/17 10:44:06;;;;;;;3.92;1.63;;;;;;;25.90;36.94;102725.16;5015122;28;20084;-40
2022/07/17 10:46:31;;;;;;;5.10;1.60;;;;;;;26.67;35.35;102735.72;5015058;28;20033;-40
2022/07/17 10:48:56;;;;;;;4.53;1.45;;;;;;;27.90;34.74;102732.28;5015184;28;20022;-40
2022/07/17 10:51:25;;;;;;;3.33;1.60;;;;;;;27.58;34.10;102727.00;5015008;28;20060;-40
2022/07/17 10:53:56;;;;;;;5.90;1.52;;;;;;;28.03;33.89;102716.94;5015149;28;20092;-42
2022/07/17 10:56:22;;;;;;;3.38;1.50;;;;;;;27.83;33.22;102729.06;5015127;28;20032;-41
2022/07/17 10:58:47;;;;;;;4.50;1.58;;;;;;;27.19;34.64;102737.84;5014806;28;20026;-42
2022/07/17 11:01:18;;;;;;;2.85;1.70;;;;;;;27.25;34.33;102738.69;5015351;28;20033;-41
2022/07/17 11:03:51;;;;;;;4.75;1.60;;;;;;;27.42;34.61;102736.72;5015402;28;20030;-42
2022/07/17 11:06:28;;;;;;;3.42;1.70;;;;;;;26.78;34.23;102739.25;5015008;28;20022;-42
2022/07/17 11:08:57;;;;;;;3.25;1.70;;;;;;;26.52;34.59;102738.16;5014997;28;20048;-40
2022/07/17 11:11:34;;;;;;;3.45;1.70;;;;;;;26.77;34.92;102741.09;5015177;28;20148;-40
2022/07/17 11:14:16;;;;;;;4.90;1.52;;;;;;;25.85;35.53;102731.16;5030701;28;20029;-41
2022/07/17 11:16:48;;;;;;;5.38;1.60;;;;;;;26.65;35.30;102743.09;5014742;28;20094;-40
2022/07/17 11:19:25;;;;;;;5.07;1.90;;;;;;;26.62;34.92;102738.28;5014427;28;20033;-41
2022/07/17 11:21:51;;;;;;;4.70;1.77;;;;;;;27.21;34.43;102748.19;5014780;28;20431;-40